createdAt,value
2017-12-02T00:00:53.281Z,80.38
2017-12-02T00:01:57.596Z,80.52
2017-12-02T00:03:02.945Z,80.88
2017-12-02T00:04:07.208Z,81.03
2017-12-02T00:05:11.467Z,81.49
2017-12-02T00:06:15.811Z,82.57
2017-12-02T00:07:25.845Z,82.17
2017-12-02T00:08:30.127Z,82.37
2017-12-02T00:09:38.460Z,82.46
2017-12-02T00:10:42.781Z,82.39
2017-12-02T00:11:47.214Z,82.50
2017-12-02T00:12:51.841Z,81.92
2017-12-02T00:13:56.137Z,82.26
2017-12-02T00:15:00.426Z,81.89
2017-12-02T00:16:05.182Z,81.51
2017-12-02T00:17:15.850Z,81.22
2017-12-02T00:18:21.453Z,81.66
2017-12-02T00:19:25.773Z,81.79
2017-12-02T00:20:30.629Z,81.69
2017-12-02T00:21:35.026Z,81.04
2017-12-02T00:22:39.668Z,80.79
2017-12-02T00:23:44.009Z,79.79
2017-12-02T00:24:48.660Z,79.74
2017-12-02T00:25:52.934Z,79.61
2017-12-02T00:26:57.338Z,79.17
2017-12-02T00:28:02.843Z,78.33
2017-12-02T00:29:07.066Z,79.00
2017-12-02T00:30:26.569Z,77.87
2017-12-02T00:31:30.827Z,76.61
2017-12-02T00:32:35.894Z,77.10
2017-12-02T00:33:40.131Z,76.83
2017-12-02T00:34:44.404Z,76.96
2017-12-02T00:35:48.764Z,76.94
2017-12-02T00:36:53.089Z,76.40
2017-12-02T00:37:59.112Z,77.24
2017-12-02T00:39:03.667Z,77.87
2017-12-02T00:40:07.946Z,78.41
2017-12-02T00:41:12.548Z,79.17
2017-12-02T00:42:18.360Z,79.67
2017-12-02T00:43:23.799Z,79.60
2017-12-02T00:44:28.137Z,79.45
2017-12-02T00:45:33.451Z,79.40
2017-12-02T00:46:37.973Z,79.21
2017-12-02T00:47:42.445Z,79.01
2017-12-02T00:48:47.178Z,79.15
2017-12-02T00:49:51.794Z,79.80
2017-12-02T00:50:56.133Z,79.55
2017-12-02T00:52:00.559Z,79.14
2017-12-02T00:53:05.507Z,78.91
2017-12-02T00:54:09.857Z,78.96
2017-12-02T00:55:16.794Z,79.39
2017-12-02T00:56:21.488Z,78.94
2017-12-02T00:57:32.676Z,77.88
2017-12-02T00:58:37.588Z,76.94
2017-12-02T00:59:41.907Z,77.17
2017-12-02T01:00:46.542Z,77.10
2017-12-02T01:01:51.504Z,77.98
2017-12-02T01:02:56.696Z,78.47
2017-12-02T01:04:00.995Z,79.32
2017-12-02T01:05:05.247Z,79.85
2017-12-02T01:06:09.796Z,80.55
2017-12-02T01:07:14.009Z,80.29
2017-12-02T01:08:19.213Z,80.63
2017-12-02T01:09:23.412Z,81.58
2017-12-02T01:10:27.768Z,81.62
2017-12-02T01:11:32.103Z,81.49
2017-12-02T01:12:36.549Z,81.44
2017-12-02T01:13:41.099Z,81.89
2017-12-02T01:14:45.665Z,82.56
2017-12-02T01:15:50.149Z,82.30
2017-12-02T01:16:54.684Z,82.37
2017-12-02T01:17:59.262Z,82.12
2017-12-02T01:19:03.565Z,82.19
2017-12-02T01:20:07.832Z,83.02
2017-12-02T01:21:12.570Z,83.15
2017-12-02T01:22:16.852Z,83.55
2017-12-02T01:23:21.498Z,83.39
2017-12-02T01:24:26.324Z,82.83
2017-12-02T01:25:31.049Z,83.09
2017-12-02T01:26:36.838Z,82.25
2017-12-02T01:27:41.034Z,81.61
2017-12-02T01:28:45.379Z,81.43
2017-12-02T01:29:49.616Z,81.40
2017-12-02T01:30:53.829Z,80.03
2017-12-02T01:31:58.126Z,80.05
2017-12-02T01:33:02.507Z,80.39
2017-12-02T01:34:07.105Z,81.14
2017-12-02T01:35:11.651Z,82.17
2017-12-02T01:36:23.681Z,83.29
2017-12-02T01:37:28.244Z,84.31
2017-12-02T01:38:32.462Z,84.43
2017-12-02T01:39:37.544Z,84.59
2017-12-02T01:40:41.731Z,84.99
2017-12-02T01:41:46.067Z,85.75
2017-12-02T01:42:51.357Z,86.09
2017-12-02T01:43:55.987Z,86.25
2017-12-02T01:45:00.397Z,86.51
2017-12-02T01:46:05.030Z,86.98
2017-12-02T01:47:09.555Z,86.76
2017-12-02T01:48:14.181Z,86.86
2017-12-02T01:49:18.482Z,87.21
2017-12-02T01:50:23.392Z,87.20
2017-12-02T01:51:27.842Z,87.20
2017-12-02T01:52:32.853Z,86.42
2017-12-02T01:53:37.086Z,85.84
2017-12-02T01:54:41.321Z,84.81
2017-12-02T01:55:45.872Z,84.54
2017-12-02T01:56:50.762Z,85.36
2017-12-02T01:57:55.135Z,85.41
2017-12-02T01:58:59.456Z,85.59
2017-12-02T02:00:10.557Z,85.75
2017-12-02T02:01:14.967Z,85.17
2017-12-02T02:02:20.193Z,85.48
2017-12-02T02:03:24.493Z,86.35
2017-12-02T02:04:28.732Z,87.16
2017-12-02T02:05:33.646Z,87.85
2017-12-02T02:06:38.866Z,88.26
2017-12-02T02:07:43.084Z,88.26
2017-12-02T02:08:47.913Z,88.35
2017-12-02T02:09:52.143Z,88.48
2017-12-02T02:10:56.440Z,88.61
2017-12-02T02:12:01.780Z,88.19
2017-12-02T02:13:05.998Z,88.19
2017-12-02T02:14:10.261Z,88.18
2017-12-02T02:15:16.232Z,88.06
2017-12-02T02:16:21.030Z,87.56
2017-12-02T02:17:25.445Z,86.77
2017-12-02T02:18:29.742Z,86.17
2017-12-02T02:19:34.266Z,85.83
2017-12-02T02:20:39.443Z,85.75
2017-12-02T02:21:44.084Z,85.39
2017-12-02T02:22:50.571Z,85.20
2017-12-02T02:23:54.835Z,84.84
2017-12-02T02:24:59.079Z,84.76
2017-12-02T02:26:03.672Z,84.83
2017-12-02T02:27:08.234Z,84.33
2017-12-02T02:28:12.538Z,84.52
2017-12-02T02:29:17.147Z,84.22
2017-12-02T02:30:22.643Z,83.94
2017-12-02T02:31:27.566Z,84.37
2017-12-02T02:32:34.124Z,84.43
2017-12-02T02:33:38.686Z,84.22
2017-12-02T02:34:42.961Z,84.87
2017-12-02T02:35:47.250Z,85.41
2017-12-02T02:36:51.784Z,84.55
2017-12-02T02:37:56.067Z,84.26
2017-12-02T02:39:00.723Z,84.38
2017-12-02T02:40:05.039Z,83.77
2017-12-02T02:41:09.517Z,82.47
2017-12-02T02:42:13.760Z,81.64
2017-12-02T02:43:21.753Z,81.29
2017-12-02T02:44:25.980Z,82.05
2017-12-02T02:45:30.638Z,83.46
2017-12-02T02:46:35.340Z,85.02
2017-12-02T02:47:39.644Z,86.74
2017-12-02T02:48:44.024Z,87.43
2017-12-02T02:49:48.208Z,88.29
2017-12-02T02:50:52.462Z,88.75
2017-12-02T02:51:57.067Z,89.28
2017-12-02T02:53:01.630Z,89.11
2017-12-02T02:54:06.355Z,89.22
2017-12-02T02:55:10.599Z,89.56
2017-12-02T02:56:18.892Z,90.40
2017-12-02T02:57:23.266Z,89.77
2017-12-02T02:58:27.525Z,89.29
2017-12-02T02:59:31.841Z,88.50
2017-12-02T03:00:36.246Z,87.66
2017-12-02T03:01:40.807Z,87.69
2017-12-02T03:02:45.053Z,88.33
2017-12-02T03:03:49.631Z,89.02
2017-12-02T03:04:54.848Z,89.55
2017-12-02T03:05:59.137Z,90.24
2017-12-02T03:07:03.401Z,90.01
2017-12-02T03:08:10.858Z,90.54
2017-12-02T03:09:15.473Z,90.76
2017-12-02T03:10:19.918Z,90.87
2017-12-02T03:11:24.152Z,91.29
2017-12-02T03:12:30.362Z,91.09
2017-12-02T03:13:36.411Z,90.67
2017-12-02T03:14:41.598Z,91.25
2017-12-02T03:15:45.941Z,91.77
2017-12-02T03:16:50.435Z,92.06
2017-12-02T03:17:54.716Z,91.84
2017-12-02T03:18:59.031Z,91.86
2017-12-02T03:20:03.372Z,91.68
2017-12-02T03:21:08.243Z,92.23
2017-12-02T03:22:12.462Z,92.31
2017-12-02T03:23:16.665Z,92.22
2017-12-02T03:24:22.255Z,92.25
2017-12-02T03:25:26.492Z,92.50
2017-12-02T03:26:30.716Z,92.85
2017-12-02T03:27:36.502Z,92.61
2017-12-02T03:28:40.801Z,92.99
2017-12-02T03:29:45.140Z,92.94
2017-12-02T03:30:49.622Z,93.07
2017-12-02T03:31:54.022Z,93.21
2017-12-02T03:32:59.437Z,92.97
2017-12-02T03:34:03.684Z,92.85
2017-12-02T03:35:07.986Z,93.15
2017-12-02T03:36:12.213Z,92.62
2017-12-02T03:37:16.451Z,92.24
2017-12-02T03:38:21.551Z,91.84
2017-12-02T03:39:25.791Z,91.96
2017-12-02T03:40:30.656Z,91.49
2017-12-02T03:41:36.034Z,92.19
2017-12-02T03:42:40.396Z,91.90
2017-12-02T03:43:45.025Z,92.43
2017-12-02T03:44:49.528Z,92.12
2017-12-02T03:45:54.231Z,91.47
2017-12-02T03:46:58.489Z,91.98
2017-12-02T03:48:03.670Z,92.50
2017-12-02T03:49:07.889Z,92.42
2017-12-02T03:50:12.400Z,92.84
2017-12-02T03:51:16.737Z,92.87
2017-12-02T03:52:21.781Z,92.68
2017-12-02T03:53:26.048Z,92.65
2017-12-02T03:54:30.304Z,93.20
2017-12-02T03:55:35.184Z,92.75
2017-12-02T03:56:40.422Z,92.09
2017-12-02T03:57:44.657Z,92.11
2017-12-02T03:58:48.975Z,91.94
2017-12-02T03:59:53.452Z,91.49
2017-12-02T04:00:57.873Z,91.17
2017-12-02T04:02:02.538Z,91.16
2017-12-02T04:03:06.872Z,91.28
2017-12-02T04:04:11.229Z,91.84
2017-12-02T04:05:21.475Z,91.34
2017-12-02T04:06:26.042Z,91.24
2017-12-02T04:07:30.486Z,91.63
2017-12-02T04:08:35.956Z,91.39
2017-12-02T04:09:40.183Z,91.82
2017-12-02T04:10:44.508Z,92.09
2017-12-02T04:11:48.912Z,92.28
2017-12-02T04:12:53.267Z,93.17
2017-12-02T04:13:57.617Z,92.80
2017-12-02T04:15:03.535Z,92.50
2017-12-02T04:16:08.259Z,90.79
2017-12-02T04:17:12.764Z,90.12
2017-12-02T04:18:18.153Z,91.09
2017-12-02T04:19:22.562Z,91.76
2017-12-02T04:20:27.760Z,91.25
2017-12-02T04:21:32.073Z,91.73
2017-12-02T04:22:36.396Z,91.52
2017-12-02T04:23:40.655Z,92.64
2017-12-02T04:24:44.844Z,92.20
2017-12-02T04:25:49.109Z,92.42
2017-12-02T04:26:53.864Z,92.36
2017-12-02T04:27:58.210Z,92.77
2017-12-02T04:29:02.499Z,92.17
2017-12-02T04:30:07.570Z,91.68
2017-12-02T04:31:12.308Z,91.43
2017-12-02T04:32:18.821Z,91.46
2017-12-02T04:33:23.790Z,91.36
2017-12-02T04:34:28.052Z,90.74
2017-12-02T04:35:32.310Z,90.35
2017-12-02T04:36:36.515Z,90.27
2017-12-02T04:37:40.792Z,90.36
2017-12-02T04:38:45.096Z,89.84
2017-12-02T04:39:49.699Z,89.75
2017-12-02T04:40:54.190Z,89.89
2017-12-02T04:41:58.429Z,90.06
2017-12-02T04:43:02.833Z,89.68
2017-12-02T04:44:07.091Z,89.47
2017-12-02T04:45:16.069Z,89.57
2017-12-02T04:46:20.661Z,90.58
2017-12-02T04:47:25.522Z,91.18
2017-12-02T04:48:30.046Z,91.30
2017-12-02T04:49:34.248Z,91.18
2017-12-02T04:50:38.525Z,91.42
2017-12-02T04:51:43.132Z,91.64
2017-12-02T04:52:47.337Z,91.98
2017-12-02T04:53:51.649Z,92.31
2017-12-02T04:54:55.897Z,92.61
2017-12-02T04:56:00.213Z,92.70
2017-12-02T04:57:19.578Z,92.91
2017-12-02T04:58:25.366Z,92.94
2017-12-02T04:59:29.645Z,93.18
2017-12-02T05:00:34.553Z,92.96
2017-12-02T05:01:38.793Z,93.12
2017-12-02T05:02:43.712Z,93.24
2017-12-02T05:03:48.017Z,93.02
2017-12-02T05:04:52.227Z,93.07
2017-12-02T05:05:56.652Z,92.86
2017-12-02T05:07:01.142Z,92.22
2017-12-02T05:08:05.436Z,92.32
2017-12-02T05:09:10.012Z,92.46
2017-12-02T05:10:14.402Z,92.69
2017-12-02T05:11:18.617Z,92.10
2017-12-02T05:12:22.893Z,92.38
2017-12-02T05:13:27.192Z,92.49
2017-12-02T05:14:31.478Z,92.71
2017-12-02T05:15:37.204Z,92.96
2017-12-02T05:16:41.433Z,92.90
2017-12-02T05:17:45.679Z,92.75
2017-12-02T05:18:49.996Z,92.88
2017-12-02T05:19:54.241Z,93.26
2017-12-02T05:20:58.555Z,93.44
2017-12-02T05:22:03.144Z,93.48
2017-12-02T05:23:07.791Z,93.34
2017-12-02T05:24:12.105Z,93.37
2017-12-02T05:25:17.003Z,93.62
2017-12-02T05:26:21.254Z,93.76
2017-12-02T05:27:25.521Z,93.82
2017-12-02T05:28:30.093Z,93.86
2017-12-02T05:29:35.224Z,93.77
2017-12-02T05:30:39.782Z,93.51
2017-12-02T05:31:44.810Z,93.32
2017-12-02T05:32:49.032Z,93.42
2017-12-02T05:33:53.644Z,93.68
2017-12-02T05:34:58.271Z,93.51
2017-12-02T05:36:02.539Z,93.03
2017-12-02T05:37:06.773Z,93.25
2017-12-02T05:38:11.023Z,93.33
2017-12-02T05:39:15.386Z,92.87
2017-12-02T05:40:19.747Z,91.96
2017-12-02T05:41:24.934Z,91.83
2017-12-02T05:42:29.863Z,91.82
2017-12-02T05:43:35.042Z,91.95
2017-12-02T05:44:39.285Z,92.09
2017-12-02T05:45:43.975Z,92.33
2017-12-02T05:46:48.199Z,91.25
2017-12-02T05:47:52.828Z,91.36
2017-12-02T05:48:57.038Z,91.37
2017-12-02T05:50:01.295Z,91.60
2017-12-02T05:51:06.031Z,91.51
2017-12-02T05:52:10.303Z,91.74
2017-12-02T05:53:14.853Z,92.25
2017-12-02T05:54:19.337Z,92.68
2017-12-02T05:55:23.581Z,92.41
2017-12-02T05:56:27.921Z,92.48
2017-12-02T05:57:32.458Z,92.47
2017-12-02T05:58:36.724Z,92.44
2017-12-02T05:59:41.056Z,92.84
2017-12-02T06:00:46.659Z,93.03
2017-12-02T06:01:51.377Z,93.35
2017-12-02T06:02:55.928Z,93.17
2017-12-02T06:04:00.295Z,93.27
2017-12-02T06:05:04.612Z,92.95
2017-12-02T06:06:08.908Z,92.33
2017-12-02T06:07:13.599Z,91.92
2017-12-02T06:08:18.214Z,91.88
2017-12-02T06:09:22.478Z,91.78
2017-12-02T06:10:26.803Z,91.66
2017-12-02T06:11:31.142Z,91.81
2017-12-02T06:12:36.522Z,91.95
2017-12-02T06:13:41.074Z,92.11
2017-12-02T06:14:45.322Z,91.55
2017-12-02T06:15:49.980Z,91.67
2017-12-02T06:16:54.542Z,91.82
2017-12-02T06:17:58.880Z,92.27
2017-12-02T06:19:03.300Z,92.39
2017-12-02T06:20:09.300Z,91.91
2017-12-02T06:21:14.148Z,91.36
2017-12-02T06:22:19.678Z,91.69
2017-12-02T06:23:24.883Z,91.44
2017-12-02T06:24:29.381Z,91.74
2017-12-02T06:25:33.703Z,91.38
2017-12-02T06:26:38.014Z,91.85
2017-12-02T06:27:42.358Z,91.89
2017-12-02T06:28:46.942Z,91.81
2017-12-02T06:29:51.577Z,92.14
2017-12-02T06:30:55.856Z,91.42
2017-12-02T06:32:00.541Z,91.02
2017-12-02T06:33:06.883Z,91.29
2017-12-02T06:34:11.591Z,91.22
2017-12-02T06:35:15.784Z,91.23
2017-12-02T06:36:20.093Z,91.45
2017-12-02T06:37:24.317Z,91.95
2017-12-02T06:38:29.017Z,91.89
2017-12-02T06:39:33.685Z,91.83
2017-12-02T06:40:38.811Z,91.68
2017-12-02T06:41:43.344Z,91.59
2017-12-02T06:42:47.580Z,91.94
2017-12-02T06:43:52.056Z,92.11
2017-12-02T06:44:56.621Z,92.48
2017-12-02T06:46:01.248Z,92.77
2017-12-02T06:47:05.575Z,92.67
2017-12-02T06:48:12.658Z,92.49
2017-12-02T06:49:16.957Z,92.78
2017-12-02T06:50:22.696Z,92.98
2017-12-02T06:51:27.221Z,93.09
2017-12-02T06:52:32.437Z,92.94
2017-12-02T06:53:36.688Z,92.91
2017-12-02T06:54:41.397Z,92.87
2017-12-02T06:55:45.637Z,93.09
2017-12-02T06:56:50.419Z,92.94
2017-12-02T06:57:54.696Z,93.20
2017-12-02T06:58:58.921Z,93.20
2017-12-02T07:00:05.054Z,93.04
2017-12-02T07:01:09.467Z,93.14
2017-12-02T07:02:13.812Z,93.01
2017-12-02T07:03:18.445Z,92.64
2017-12-02T07:04:26.545Z,92.46
2017-12-02T07:05:31.428Z,92.43
2017-12-02T07:06:37.669Z,92.48
2017-12-02T07:07:42.043Z,92.42
2017-12-02T07:08:47.332Z,92.82
2017-12-02T07:09:52.818Z,92.83
2017-12-02T07:10:57.433Z,92.60
2017-12-02T07:12:02.221Z,92.50
2017-12-02T07:13:06.737Z,92.61
2017-12-02T07:14:11.127Z,92.47
2017-12-02T07:15:16.406Z,91.89
2017-12-02T07:16:23.544Z,91.27
2017-12-02T07:17:27.897Z,91.15
2017-12-02T07:18:32.240Z,90.89
2017-12-02T07:19:36.673Z,90.91
2017-12-02T07:20:41.313Z,91.48
2017-12-02T07:21:45.712Z,91.58
2017-12-02T07:22:50.669Z,91.63
2017-12-02T07:23:54.987Z,91.83
2017-12-02T07:24:59.337Z,92.06
2017-12-02T07:26:04.158Z,92.15
2017-12-02T07:27:09.269Z,91.91
2017-12-02T07:28:14.604Z,91.62
2017-12-02T07:29:19.713Z,91.85
2017-12-02T07:30:24.206Z,92.06
2017-12-02T07:31:29.264Z,91.76
2017-12-02T07:32:38.783Z,91.80
2017-12-02T07:33:43.789Z,92.17
2017-12-02T07:34:48.782Z,92.45
2017-12-02T07:35:53.500Z,92.54
2017-12-02T07:36:57.910Z,92.37
2017-12-02T07:38:02.698Z,92.62
2017-12-02T07:39:07.713Z,92.76
2017-12-02T07:40:12.136Z,92.72
2017-12-02T07:41:16.880Z,92.87
2017-12-02T07:42:22.432Z,92.78
2017-12-02T07:43:27.018Z,92.78
2017-12-02T07:44:33.199Z,92.87
2017-12-02T07:45:39.458Z,93.04
2017-12-02T07:46:47.642Z,93.17
2017-12-02T07:47:51.958Z,93.25
2017-12-02T07:48:56.648Z,93.33
2017-12-02T07:50:01.334Z,93.43
2017-12-02T07:51:06.175Z,93.35
2017-12-02T07:52:10.449Z,93.38
2017-12-02T07:53:14.769Z,92.74
2017-12-02T07:54:19.000Z,92.53
2017-12-02T07:55:23.619Z,92.43
2017-12-02T07:56:28.064Z,92.57
2017-12-02T07:57:33.230Z,92.41
2017-12-02T07:58:37.824Z,92.54
2017-12-02T07:59:42.152Z,92.40
2017-12-02T08:00:47.126Z,92.15
2017-12-02T08:01:51.978Z,92.00
2017-12-02T08:02:56.255Z,92.34
2017-12-02T08:04:00.990Z,92.56
2017-12-02T08:05:05.380Z,92.39
2017-12-02T08:06:09.654Z,92.36
2017-12-02T08:07:14.381Z,92.36
2017-12-02T08:08:20.631Z,92.72
2017-12-02T08:09:24.958Z,92.70
2017-12-02T08:10:29.477Z,92.68
2017-12-02T08:11:33.716Z,92.78
2017-12-02T08:12:37.954Z,92.83
2017-12-02T08:13:42.748Z,93.05
2017-12-02T08:14:47.976Z,92.88
2017-12-02T08:15:52.794Z,92.51
2017-12-02T08:16:57.366Z,92.38
2017-12-02T08:18:01.872Z,91.79
2017-12-02T08:19:06.183Z,91.96
2017-12-02T08:20:10.409Z,92.17
2017-12-02T08:21:14.644Z,92.34
2017-12-02T08:22:23.596Z,91.88
2017-12-02T08:23:29.024Z,91.55
2017-12-02T08:24:38.991Z,92.04
2017-12-02T08:25:43.248Z,92.38
2017-12-02T08:26:47.525Z,92.59
2017-12-02T08:27:51.793Z,93.03
2017-12-02T08:28:56.527Z,92.87
2017-12-02T08:30:00.807Z,93.12
2017-12-02T08:31:05.173Z,93.03
2017-12-02T08:32:10.246Z,92.69
2017-12-02T08:33:15.979Z,92.08
2017-12-02T08:34:21.658Z,91.74
2017-12-02T08:35:26.425Z,91.88
2017-12-02T08:36:31.718Z,92.12
2017-12-02T08:37:36.876Z,92.83
2017-12-02T08:38:41.115Z,92.84
2017-12-02T08:39:45.485Z,92.49
2017-12-02T08:40:50.043Z,92.58
2017-12-02T08:41:54.602Z,92.55
2017-12-02T08:42:58.986Z,92.58
2017-12-02T08:44:03.338Z,92.98
2017-12-02T08:45:07.926Z,92.93
2017-12-02T08:46:16.508Z,92.98
2017-12-02T08:47:20.843Z,92.73
2017-12-02T08:48:27.283Z,92.90
2017-12-02T08:49:32.091Z,92.87
2017-12-02T08:50:36.433Z,92.59
2017-12-02T08:51:40.726Z,92.35
2017-12-02T08:52:45.003Z,92.43
2017-12-02T08:53:49.672Z,92.10
2017-12-02T08:54:53.934Z,91.60
2017-12-02T08:55:58.236Z,91.53
2017-12-02T08:57:04.403Z,92.03
2017-12-02T08:58:08.645Z,92.48
2017-12-02T08:59:12.929Z,92.45
2017-12-02T09:00:18.189Z,92.40
2017-12-02T09:01:22.512Z,92.12
2017-12-02T09:02:27.700Z,91.76
2017-12-02T09:03:32.041Z,91.86
2017-12-02T09:04:36.309Z,91.66
2017-12-02T09:05:40.653Z,91.66
2017-12-02T09:06:45.007Z,91.66
2017-12-02T09:07:49.296Z,91.44
2017-12-02T09:08:53.536Z,91.58
2017-12-02T09:09:57.915Z,92.05
2017-12-02T09:11:03.249Z,92.08
2017-12-02T09:12:08.621Z,92.03
2017-12-02T09:13:12.964Z,92.52
2017-12-02T09:14:17.255Z,92.24
2017-12-02T09:15:21.803Z,92.29
2017-12-02T09:16:26.225Z,92.51
2017-12-02T09:17:31.318Z,92.80
2017-12-02T09:18:35.728Z,93.18
2017-12-02T09:19:40.096Z,93.35
2017-12-02T09:20:44.718Z,93.32
2017-12-02T09:21:49.127Z,92.91
2017-12-02T09:22:53.413Z,92.82
2017-12-02T09:23:58.001Z,92.88
2017-12-02T09:25:02.562Z,92.80
2017-12-02T09:26:07.181Z,92.80
2017-12-02T09:27:15.258Z,92.70
2017-12-02T09:28:20.157Z,92.86
2017-12-02T09:29:24.480Z,92.82
2017-12-02T09:30:29.567Z,92.59
2017-12-02T09:31:35.131Z,92.16
2017-12-02T09:32:39.640Z,92.53
2017-12-02T09:33:43.863Z,92.22
2017-12-02T09:34:48.144Z,92.01
2017-12-02T09:35:52.525Z,91.82
2017-12-02T09:36:56.825Z,92.24
2017-12-02T09:38:01.175Z,92.39
2017-12-02T09:39:06.626Z,92.24
2017-12-02T09:40:11.397Z,92.66
2017-12-02T09:41:16.278Z,92.70
2017-12-02T09:42:21.743Z,92.40
2017-12-02T09:43:26.104Z,92.59
2017-12-02T09:44:30.631Z,92.71
2017-12-02T09:45:35.290Z,93.12
2017-12-02T09:46:39.863Z,93.58
2017-12-02T09:47:44.223Z,93.89
2017-12-02T09:48:48.924Z,94.26
2017-12-02T09:49:53.230Z,94.22
2017-12-02T09:50:57.478Z,94.04
2017-12-02T09:52:01.848Z,93.97
2017-12-02T09:53:07.607Z,93.43
2017-12-02T09:54:12.384Z,92.89
2017-12-02T09:55:16.961Z,92.81
2017-12-02T09:56:21.243Z,93.07
2017-12-02T09:57:25.942Z,93.27
2017-12-02T09:58:30.332Z,92.69
2017-12-02T09:59:34.991Z,93.01
2017-12-02T10:00:41.208Z,92.71
2017-12-02T10:01:45.924Z,93.04
2017-12-02T10:02:50.296Z,93.44
2017-12-02T10:03:54.658Z,93.53
2017-12-02T10:04:59.028Z,93.41
2017-12-02T10:06:03.665Z,93.36
2017-12-02T10:07:07.994Z,93.29
2017-12-02T10:09:23.042Z,93.12
2017-12-02T10:10:27.488Z,93.52
2017-12-02T10:11:31.791Z,93.55
2017-12-02T10:12:36.102Z,93.36
2017-12-02T10:13:41.121Z,93.27
2017-12-02T10:14:45.437Z,93.62
2017-12-02T10:15:50.138Z,92.85
2017-12-02T10:16:54.489Z,92.62
2017-12-02T10:17:58.945Z,92.47
2017-12-02T10:19:03.554Z,91.27
2017-12-02T10:20:07.971Z,90.23
2017-12-02T10:21:12.471Z,89.79
2017-12-02T10:22:16.933Z,89.52
2017-12-02T10:23:21.477Z,89.64
2017-12-02T10:24:25.801Z,90.38
2017-12-02T10:25:31.669Z,90.47
2017-12-02T10:26:36.550Z,90.93
2017-12-02T10:27:40.877Z,90.44
2017-12-02T10:28:45.462Z,90.80
2017-12-02T10:29:49.773Z,90.93
2017-12-02T10:30:54.706Z,91.59
2017-12-02T10:31:59.066Z,91.78
2017-12-02T10:33:04.042Z,92.68
2017-12-02T10:34:08.310Z,93.26
2017-12-02T10:35:12.682Z,93.45
2017-12-02T10:36:16.953Z,93.30
2017-12-02T10:37:21.767Z,93.21
2017-12-02T10:38:26.054Z,93.02
2017-12-02T10:39:30.457Z,93.50
2017-12-02T10:40:34.860Z,93.54
2017-12-02T10:41:39.489Z,93.47
2017-12-02T10:42:44.146Z,93.53
2017-12-02T10:43:48.880Z,93.53
2017-12-02T10:44:53.245Z,93.08
2017-12-02T10:45:57.811Z,92.77
2017-12-02T10:47:02.203Z,92.97
2017-12-02T10:48:07.204Z,93.17
2017-12-02T10:49:11.456Z,93.48
2017-12-02T10:50:15.876Z,93.91
2017-12-02T10:51:21.425Z,93.43
2017-12-02T10:52:26.205Z,92.74
2017-12-02T10:53:32.041Z,92.59
2017-12-02T10:54:36.364Z,92.12
2017-12-02T10:55:40.655Z,91.63
2017-12-02T10:56:45.189Z,91.56
2017-12-02T10:57:49.655Z,91.37
2017-12-02T10:58:54.052Z,91.01
2017-12-02T10:59:59.402Z,91.17
2017-12-02T11:01:04.017Z,91.36
2017-12-02T11:02:08.657Z,91.61
2017-12-02T11:03:13.821Z,91.59
2017-12-02T11:05:30.009Z,92.30
2017-12-02T11:06:34.449Z,92.82
2017-12-02T11:07:38.954Z,92.75
2017-12-02T11:08:44.436Z,92.04
2017-12-02T11:09:49.524Z,91.23
2017-12-02T11:10:54.566Z,91.17
2017-12-02T11:12:00.715Z,91.13
2017-12-02T11:13:05.075Z,91.78
2017-12-02T11:14:09.525Z,91.67
2017-12-02T11:15:15.575Z,91.48
2017-12-02T11:16:20.350Z,91.26
2017-12-02T11:17:26.318Z,91.06
2017-12-02T11:18:31.228Z,91.29
2017-12-02T11:19:35.540Z,92.01
2017-12-02T11:20:40.464Z,92.26
2017-12-02T11:21:44.959Z,92.63
2017-12-02T11:22:49.407Z,92.44
2017-12-02T11:23:53.711Z,92.14
2017-12-02T11:24:58.298Z,92.33
2017-12-02T11:26:02.740Z,92.24
2017-12-02T11:27:07.238Z,92.18
2017-12-02T11:28:11.633Z,92.39
2017-12-02T11:29:15.977Z,92.89
2017-12-02T11:30:20.861Z,92.84
2017-12-02T11:31:25.223Z,92.71
2017-12-02T11:32:29.741Z,93.06
2017-12-02T11:33:34.139Z,93.50
2017-12-02T11:34:39.686Z,93.50
2017-12-02T11:35:44.160Z,93.06
2017-12-02T11:36:48.520Z,92.46
2017-12-02T11:37:53.338Z,92.43
2017-12-02T11:38:58.753Z,92.94
2017-12-02T11:40:03.099Z,92.68
2017-12-02T11:41:07.803Z,92.34
2017-12-02T11:42:12.808Z,92.46
2017-12-02T11:43:18.422Z,92.28
2017-12-02T11:44:22.818Z,92.13
2017-12-02T11:45:28.271Z,92.67
2017-12-02T11:46:34.224Z,93.04
2017-12-02T11:47:38.888Z,92.40
2017-12-02T11:48:43.659Z,91.79
2017-12-02T11:49:48.314Z,91.85
2017-12-02T11:50:52.638Z,92.22
2017-12-02T11:51:57.673Z,92.17
2017-12-02T11:53:01.953Z,92.20
2017-12-02T11:54:06.328Z,91.92
2017-12-02T11:55:10.659Z,91.81
2017-12-02T11:56:14.991Z,91.51
2017-12-02T11:57:19.422Z,91.33
2017-12-02T11:58:23.979Z,90.96
2017-12-02T11:59:28.319Z,90.92
2017-12-02T12:00:34.178Z,91.25
2017-12-02T12:01:38.719Z,90.97
2017-12-02T12:02:43.427Z,90.31
2017-12-02T12:03:47.740Z,90.88
2017-12-02T12:04:53.703Z,91.36
2017-12-02T12:05:58.312Z,92.06
2017-12-02T12:07:03.029Z,92.11
2017-12-02T12:08:09.700Z,91.98
2017-12-02T12:09:14.654Z,91.53
2017-12-02T12:10:19.029Z,91.27
2017-12-02T12:12:50.731Z,91.33
2017-12-02T12:13:55.603Z,91.55
2017-12-02T12:15:00.366Z,91.51
2017-12-02T12:16:13.810Z,91.45
2017-12-02T12:17:18.376Z,91.93
2017-12-02T12:18:23.519Z,91.81
2017-12-02T12:19:28.736Z,91.65
2017-12-02T12:20:33.976Z,92.22
2017-12-02T12:21:38.572Z,91.90
2017-12-02T12:22:43.272Z,92.18
2017-12-02T12:23:48.111Z,92.59
2017-12-02T12:24:52.981Z,91.95
2017-12-02T12:25:57.262Z,91.54
2017-12-02T12:27:02.367Z,92.38
2017-12-02T12:28:07.957Z,92.43
2017-12-02T12:29:12.959Z,92.66
2017-12-02T12:30:20.250Z,92.69
2017-12-02T12:31:27.029Z,92.62
2017-12-02T12:32:34.211Z,92.78
2017-12-02T12:33:38.696Z,92.99
2017-12-02T12:34:45.418Z,93.55
2017-12-02T12:35:50.732Z,93.53
2017-12-02T12:36:55.343Z,93.50
2017-12-02T12:37:59.741Z,93.32
2017-12-02T12:39:04.269Z,93.52
2017-12-02T12:40:09.094Z,93.53
2017-12-02T12:41:13.623Z,93.67
2017-12-02T12:42:18.639Z,93.38
2017-12-02T12:43:23.569Z,93.64
2017-12-02T12:44:27.801Z,93.82
2017-12-02T12:45:32.684Z,94.02
2017-12-02T12:46:37.323Z,93.81
2017-12-02T12:47:41.775Z,93.73
2017-12-02T12:48:48.567Z,93.76
2017-12-02T12:49:55.584Z,93.42
2017-12-02T12:51:00.008Z,93.61
2017-12-02T12:52:04.960Z,93.98
2017-12-02T12:53:09.565Z,93.99
2017-12-02T12:54:14.005Z,93.97
2017-12-02T12:55:20.072Z,94.01
2017-12-02T12:56:24.629Z,94.02
2017-12-02T12:57:29.231Z,94.25
2017-12-02T12:58:33.535Z,94.29
2017-12-02T12:59:38.215Z,94.19
2017-12-02T13:00:43.356Z,94.08
2017-12-02T13:01:50.220Z,94.32
2017-12-02T13:02:55.084Z,94.17
2017-12-02T13:04:02.890Z,94.23
2017-12-02T13:05:09.172Z,94.40
2017-12-02T13:06:13.736Z,94.37
2017-12-02T13:07:18.915Z,94.35
2017-12-02T13:08:23.509Z,94.58
2017-12-02T13:09:31.907Z,94.57
2017-12-02T13:10:40.153Z,94.52
2017-12-02T13:11:45.039Z,94.23
2017-12-02T13:12:51.771Z,94.14
2017-12-02T13:13:58.919Z,94.34
2017-12-02T13:15:06.008Z,93.91
2017-12-02T13:16:12.123Z,93.99
2017-12-02T13:17:16.522Z,93.81
2017-12-02T13:18:26.212Z,93.73
2017-12-02T13:19:32.859Z,93.89
2017-12-02T13:20:38.137Z,93.98
2017-12-02T13:21:43.135Z,93.73
2017-12-02T13:22:47.716Z,93.33
2017-12-02T13:23:53.930Z,92.95
2017-12-02T13:24:58.331Z,93.17
2017-12-02T13:26:03.914Z,93.28
2017-12-02T13:27:08.424Z,93.51
2017-12-02T13:28:13.876Z,93.73
2017-12-02T13:29:19.697Z,93.83
2017-12-02T13:30:24.418Z,94.10
2017-12-02T13:31:30.429Z,93.98
2017-12-02T13:32:38.358Z,93.72
2017-12-02T13:33:43.638Z,93.70
2017-12-02T13:34:48.928Z,93.77
2017-12-02T13:36:09.821Z,93.86
2017-12-02T13:37:17.896Z,93.70
2017-12-02T13:38:23.552Z,93.18
2017-12-02T13:39:28.179Z,93.10
2017-12-02T13:40:34.620Z,93.39
2017-12-02T13:41:39.693Z,93.77
2017-12-02T13:42:45.032Z,93.83
2017-12-02T13:43:49.496Z,93.55
2017-12-02T13:44:54.955Z,93.83
2017-12-02T13:45:59.804Z,93.97
2017-12-02T13:47:05.220Z,94.02
2017-12-02T13:48:09.749Z,94.39
2017-12-02T13:49:14.712Z,94.45
2017-12-02T13:50:19.689Z,94.40
2017-12-02T13:51:24.277Z,94.43
2017-12-02T13:52:28.708Z,94.22
2017-12-02T13:53:33.474Z,94.44
2017-12-02T13:54:38.077Z,94.56
2017-12-02T13:55:42.971Z,94.64
2017-12-02T13:56:47.907Z,94.81
2017-12-02T13:57:52.557Z,94.61
2017-12-02T13:58:56.989Z,94.69
2017-12-02T14:00:01.675Z,94.52